Time;durP1;ratioP1;P1;durP2;ratioP2;P2;SDS_P1;SDS_P2;PMS_P1;PMS_P2;Temp;Humidity;BMP_temperature;BMP_pressure;BME280_temperature;BME280_humidity;BME280_pressure;Samples;Min_cycle;Max_cycle;Signal;HPM_P1;HPM_P2
2022/01/25 05:10:50;;;;;;;13.55;8.70;;;-1.00;99.90;;;;;;4971217;28;20222;-71
2022/01/25 05:13:36;;;;;;;13.00;8.52;;;-1.10;99.90;;;;;;4975028;28;20294;-71
2022/01/25 05:16:06;;;;;;;14.60;10.43;;;-1.10;99.90;;;;;;4974695;28;20184;-71
2022/01/25 05:18:41;;;;;;;13.82;8.23;;;-1.20;99.90;;;;;;4974564;28;20282;-71
2022/01/25 05:23:53;;;;;;;13.88;9.48;;;-1.20;99.90;;;;;;4975085;28;20254;-71
2022/01/25 05:26:22;;;;;;;15.63;10.00;;;-1.20;99.90;;;;;;4974931;28;20248;-71
2022/01/25 05:28:49;;;;;;;17.30;9.43;;;-1.20;99.90;;;;;;4974930;28;20255;-71
2022/01/25 05:31:16;;;;;;;17.77;9.93;;;-1.20;99.90;;;;;;4974806;28;20203;-71
2022/01/25 05:33:43;;;;;;;18.63;10.52;;;-1.20;99.90;;;;;;4974742;28;20199;-71
2022/01/25 05:36:10;;;;;;;16.75;9.73;;;-1.30;99.90;;;;;;4974712;28;20249;-71
2022/01/25 05:38:36;;;;;;;15.88;9.18;;;-1.30;99.90;;;;;;4974619;28;20259;-71
2022/01/25 05:41:04;;;;;;;18.48;10.10;;;-1.30;99.90;;;;;;5009497;23;20314;-71
2022/01/25 05:46:19;;;;;;;13.02;8.13;;;-1.40;99.90;;;;;;4993700;28;20214;-69
2022/01/25 05:48:47;;;;;;;13.45;8.38;;;-1.40;99.90;;;;;;4993822;28;20677;-70
2022/01/25 05:51:14;;;;;;;14.50;8.77;;;-1.40;99.90;;;;;;4993956;28;20218;-70
2022/01/25 05:53:42;;;;;;;14.25;8.45;;;-1.40;99.90;;;;;;4997666;28;20670;-67
2022/01/25 05:56:10;;;;;;;13.80;8.57;;;-1.40;99.90;;;;;;4997998;28;20612;-68
2022/01/25 05:58:38;;;;;;;11.82;8.02;;;-1.40;99.90;;;;;;4997917;28;20290;-68
2022/01/25 06:01:05;;;;;;;13.00;8.77;;;-1.30;99.90;;;;;;4997619;28;20233;-69
2022/01/25 06:03:32;;;;;;;11.93;8.38;;;-1.30;99.90;;;;;;4997988;28;20209;-69
2022/01/25 06:05:59;;;;;;;13.98;8.68;;;-1.30;99.90;;;;;;4998001;28;20221;-69
2022/01/25 06:08:27;;;;;;;13.30;8.55;;;-1.30;99.90;;;;;;4997727;28;20245;-67
2022/01/25 06:10:56;;;;;;;11.95;8.10;;;-1.30;99.90;;;;;;4997459;28;20223;-67
2022/01/25 06:13:23;;;;;;;13.02;8.30;;;-1.30;99.90;;;;;;4997239;28;20670;-67
2022/01/25 06:15:51;;;;;;;13.43;7.88;;;-1.30;99.90;;;;;;4997402;28;20201;-67
2022/01/25 06:18:18;;;;;;;10.32;6.53;;;-1.30;99.90;;;;;;4997302;28;20670;-67
2022/01/25 06:20:44;;;;;;;10.07;6.97;;;-1.30;99.90;;;;;;4997486;28;20223;-67
2022/01/25 06:23:11;;;;;;;15.05;8.20;;;-1.30;99.90;;;;;;4997305;28;20645;-67
2022/01/25 06:25:38;;;;;;;14.25;9.25;;;-1.30;99.90;;;;;;4997335;28;20218;-67
2022/01/25 06:28:05;;;;;;;18.67;10.75;;;-1.30;99.90;;;;;;4996994;28;20203;-67
2022/01/25 06:30:33;;;;;;;17.13;9.95;;;-1.40;99.90;;;;;;4996940;28;20264;-67
2022/01/25 06:33:01;;;;;;;15.38;9.27;;;-1.40;99.90;;;;;;4997307;28;20213;-68
2022/01/25 06:35:30;;;;;;;18.63;10.50;;;-1.40;99.90;;;;;;4999463;28;20327;-67
2022/01/25 06:37:57;;;;;;;17.75;10.05;;;-1.50;99.90;;;;;;4997569;28;20202;-67
2022/01/25 06:40:24;;;;;;;17.67;10.68;;;-1.50;99.90;;;;;;4996952;28;20261;-67
2022/01/25 06:42:51;;;;;;;14.55;9.57;;;-1.50;99.90;;;;;;4997034;28;20211;-67
2022/01/25 06:45:21;;;;;;;15.38;8.85;;;-1.40;99.90;;;;;;4997001;28;20231;-67
2022/01/25 06:47:49;;;;;;;15.80;9.32;;;-1.40;99.90;;;;;;4997124;28;20209;-67
2022/01/25 06:50:19;;;;;;;13.02;8.57;;;-1.40;99.90;;;;;;4996923;28;20560;-67
2022/01/25 06:52:47;;;;;;;24.20;13.18;;;-1.40;99.90;;;;;;4996710;28;20631;-67
2022/01/25 06:55:15;;;;;;;23.58;13.05;;;-1.50;99.90;;;;;;4996569;28;20198;-67
2022/01/25 06:57:42;;;;;;;23.38;11.70;;;-1.50;99.90;;;;;;4996613;28;20205;-67
2022/01/25 07:00:12;;;;;;;21.60;11.57;;;-1.60;99.90;;;;;;4996778;28;20309;-67
2022/01/25 07:02:39;;;;;;;17.05;10.55;;;-1.50;99.90;;;;;;4996628;28;20209;-67
2022/01/25 07:05:07;;;;;;;19.10;10.43;;;-1.50;99.90;;;;;;4995877;28;20291;-67
2022/01/25 07:07:36;;;;;;;17.70;10.68;;;-1.50;99.90;;;;;;4996561;28;20223;-68
2022/01/25 07:10:04;;;;;;;15.93;9.82;;;-1.50;99.90;;;;;;4996273;28;20310;-68
2022/01/25 07:12:31;;;;;;;19.08;10.98;;;-1.60;99.90;;;;;;4996582;28;20226;-67
2022/01/25 07:14:58;;;;;;;18.40;10.45;;;-1.60;99.90;;;;;;4996528;28;20230;-68
2022/01/25 07:17:25;;;;;;;13.85;9.73;;;-1.60;99.90;;;;;;4996449;28;20257;-68
2022/01/25 07:19:52;;;;;;;18.10;11.10;;;-1.50;99.90;;;;;;4996382;28;20245;-68
2022/01/25 07:22:19;;;;;;;18.23;11.13;;;-1.50;99.90;;;;;;4996384;28;20199;-68
2022/01/25 07:24:47;;;;;;;22.98;12.38;;;-1.50;99.90;;;;;;4996402;28;20238;-68
2022/01/25 07:27:14;;;;;;;15.50;9.52;;;-1.60;99.90;;;;;;4995957;28;20222;-68
2022/01/25 07:29:41;;;;;;;20.60;11.45;;;-1.60;99.90;;;;;;4996000;28;20749;-68
2022/01/25 07:32:08;;;;;;;19.70;11.65;;;-1.60;99.90;;;;;;4996810;28;20666;-68
2022/01/25 07:34:35;;;;;;;18.88;10.95;;;-1.60;99.90;;;;;;4997488;28;20198;-68
2022/01/25 07:37:02;;;;;;;17.67;10.35;;;-1.60;99.90;;;;;;4996974;28;20290;-68
2022/01/25 07:39:29;;;;;;;19.55;10.80;;;-1.60;99.90;;;;;;4997182;28;20294;-68
2022/01/25 07:41:58;;;;;;;20.65;11.23;;;-1.50;99.90;;;;;;4995949;28;20318;-68
2022/01/25 07:44:29;;;;;;;18.48;10.85;;;-1.50;99.90;;;;;;4997993;28;20302;-68
2022/01/25 07:46:57;;;;;;;15.77;9.75;;;-1.50;99.90;;;;;;5000366;28;20213;-68
2022/01/25 07:49:24;;;;;;;16.60;10.13;;;-1.50;99.90;;;;;;4997261;28;20241;-68
2022/01/25 07:51:51;;;;;;;14.45;8.98;;;-1.40;99.90;;;;;;4995755;28;20672;-69
2022/01/25 07:54:18;;;;;;;16.75;9.50;;;-1.30;99.90;;;;;;4996182;28;20293;-69
2022/01/25 07:56:45;;;;;;;12.98;8.70;;;-1.20;99.90;;;;;;4995953;28;20684;-69
2022/01/25 07:59:13;;;;;;;11.57;7.88;;;-1.10;99.90;;;;;;4996661;28;20209;-69
2022/01/25 08:01:40;;;;;;;14.45;8.82;;;-1.00;99.90;;;;;;5000179;28;20237;-69
2022/01/25 08:04:08;;;;;;;13.85;8.35;;;-1.00;99.90;;;;;;4995989;28;20277;-69
2022/01/25 08:06:36;;;;;;;13.20;8.00;;;-1.00;99.90;;;;;;4996331;28;20234;-69
2022/01/25 08:09:04;;;;;;;10.93;7.78;;;-0.90;99.90;;;;;;4996306;28;20294;-69
2022/01/25 08:11:31;;;;;;;12.20;7.57;;;-0.90;99.90;;;;;;4996164;28;20317;-69
2022/01/25 08:14:11;;;;;;;13.35;8.50;;;-0.90;99.90;;;;;;4995969;28;20225;-69
2022/01/25 08:16:39;;;;;;;13.43;8.20;;;-0.80;99.90;;;;;;4995461;28;20225;-69
2022/01/25 08:19:08;;;;;;;10.50;7.47;;;-0.70;99.90;;;;;;4995399;28;20670;-69
2022/01/25 08:21:36;;;;;;;11.02;7.35;;;-0.60;99.90;;;;;;4995532;28;20223;-69
2022/01/25 08:24:03;;;;;;;11.63;7.60;;;-0.60;99.90;;;;;;4995349;28;20670;-69
2022/01/25 08:26:30;;;;;;;17.35;10.15;;;-0.50;99.90;;;;;;4995516;28;20227;-69
2022/01/25 08:28:57;;;;;;;16.83;10.30;;;-0.60;99.90;;;;;;4995051;28;20297;-69
2022/01/25 08:31:24;;;;;;;18.15;10.52;;;-0.60;99.90;;;;;;4995301;28;20306;-69
2022/01/25 08:33:53;;;;;;;16.95;10.98;;;-0.60;99.90;;;;;;4995166;28;20289;-70
2022/01/25 08:36:20;;;;;;;16.92;10.65;;;-0.60;99.90;;;;;;4995526;28;20203;-69
2022/01/25 08:38:47;;;;;;;16.83;10.02;;;-0.60;99.90;;;;;;4995145;28;20268;-69
2022/01/25 08:41:15;;;;;;;15.32;9.52;;;-0.50;99.90;;;;;;4994852;28;20333;-67
2022/01/25 08:43:42;;;;;;;12.60;8.25;;;-0.50;99.90;;;;;;4995069;28;20298;-67
2022/01/25 08:46:09;;;;;;;15.90;9.75;;;-0.40;99.90;;;;;;4995232;28;20230;-67
2022/01/25 08:48:36;;;;;;;17.27;10.38;;;-0.40;99.90;;;;;;4995102;28;20289;-68
2022/01/25 08:51:05;;;;;;;15.27;9.75;;;-0.40;99.90;;;;;;4994755;28;20773;-70
2022/01/25 08:53:32;;;;;;;16.85;9.93;;;-0.40;99.90;;;;;;4994901;28;20202;-69
2022/01/25 08:55:59;;;;;;;16.25;8.95;;;-0.30;99.90;;;;;;4994944;28;20305;-70
2022/01/25 08:58:26;;;;;;;13.00;8.20;;;-0.30;99.90;;;;;;4994577;28;20630;-69
2022/01/25 09:00:53;;;;;;;11.73;8.32;;;-0.20;99.90;;;;;;4994480;28;20314;-69
2022/01/25 09:03:20;;;;;;;12.18;8.25;;;0.00;99.90;;;;;;4994823;28;20286;-70
2022/01/25 09:05:47;;;;;;;11.88;8.48;;;0.00;99.90;;;;;;4994751;28;20294;-69
2022/01/25 09:08:20;;;;;;;14.82;8.55;;;0.10;99.90;;;;;;4994415;28;20226;-69
2022/01/25 09:10:51;;;;;;;20.70;13.00;;;0.20;99.90;;;;;;4994119;28;20772;-70
2022/01/25 09:13:18;;;;;;;17.23;10.60;;;0.30;99.90;;;;;;4994423;28;20631;-67
2022/01/25 09:15:46;;;;;;;16.33;10.23;;;0.30;99.90;;;;;;4995254;28;20342;-66
2022/01/25 09:18:13;;;;;;;15.45;9.70;;;0.40;99.90;;;;;;4994329;28;20658;-66
2022/01/25 09:20:40;;;;;;;15.77;9.85;;;0.50;99.90;;;;;;4994364;28;20309;-67
2022/01/25 09:23:07;;;;;;;20.88;13.45;;;0.60;99.90;;;;;;4994411;28;20239;-67
2022/01/25 09:25:36;;;;;;;20.88;12.73;;;0.60;99.90;;;;;;4994419;28;20290;-68
2022/01/25 09:28:04;;;;;;;19.92;12.75;;;0.60;99.90;;;;;;4993733;28;20688;-68
2022/01/25 09:30:31;;;;;;;20.52;11.90;;;0.60;99.90;;;;;;4994667;28;20230;-69
2022/01/25 09:32:58;;;;;;;21.25;12.98;;;0.60;99.90;;;;;;4994318;28;20234;-69
2022/01/25 09:35:26;;;;;;;21.33;12.52;;;0.70;99.90;;;;;;4994093;28;20681;-69
2022/01/25 09:37:53;;;;;;;17.77;11.48;;;0.70;99.90;;;;;;4994231;28;20202;-69
2022/01/25 09:40:21;;;;;;;15.95;10.70;;;0.90;99.90;;;;;;4993785;28;20789;-69
2022/01/25 09:42:52;;;;;;;16.92;10.68;;;1.00;99.90;;;;;;4993859;28;20202;-70
2022/01/25 09:45:19;;;;;;;20.33;11.77;;;1.20;99.90;;;;;;4994307;28;20195;-69
2022/01/25 09:47:47;;;;;;;19.33;11.57;;;1.30;99.90;;;;;;4994108;28;20230;-69
2022/01/25 09:50:15;;;;;;;26.13;15.07;;;1.30;99.90;;;;;;4994055;28;20225;-69
2022/01/25 09:52:43;;;;;;;24.85;13.98;;;1.30;99.90;;;;;;4994050;28;20198;-69
2022/01/25 09:55:12;;;;;;;24.15;13.77;;;1.30;99.90;;;;;;4994213;28;20291;-69
2022/01/25 09:57:39;;;;;;;22.85;13.20;;;1.30;99.90;;;;;;4994296;28;20194;-69
2022/01/25 10:00:12;;;;;;;22.40;13.25;;;1.40;99.90;;;;;;4994196;28;20309;-69
2022/01/25 10:02:45;;;;;;;19.40;11.88;;;1.50;99.90;;;;;;4993832;28;20673;-69
2022/01/25 10:05:27;;;;;;;17.23;10.68;;;1.70;99.90;;;;;;4994236;28;20187;-68
2022/01/25 10:08:01;;;;;;;20.60;11.70;;;1.80;99.90;;;;;;4993719;28;20551;-68
2022/01/25 10:10:29;;;;;;;16.73;10.23;;;1.90;99.90;;;;;;4993760;28;20260;-69
2022/01/25 10:13:06;;;;;;;18.85;11.43;;;2.10;99.90;;;;;;4994222;28;20569;-69
2022/01/25 10:15:35;;;;;;;26.92;15.90;;;2.10;99.90;;;;;;4993698;28;20634;-69
2022/01/25 10:18:04;;;;;;;22.38;12.80;;;2.00;99.90;;;;;;4994008;28;20637;-69
2022/01/25 10:20:33;;;;;;;22.92;13.35;;;1.90;99.90;;;;;;4993797;28;20223;-69
2022/01/25 10:23:02;;;;;;;19.15;11.43;;;1.90;99.90;;;;;;4993911;28;20293;-69
2022/01/25 10:25:35;;;;;;;17.52;10.45;;;2.00;99.90;;;;;;4993843;28;20210;-69
2022/01/25 10:28:03;;;;;;;18.23;11.15;;;2.10;99.90;;;;;;4993786;28;20294;-69
2022/01/25 10:30:32;;;;;;;16.90;10.60;;;2.10;99.90;;;;;;4993748;28;20223;-68
2022/01/25 10:33:02;;;;;;;15.85;9.52;;;2.20;99.90;;;;;;4993440;28;20765;-69
2022/01/25 10:35:30;;;;;;;14.55;9.60;;;2.20;99.90;;;;;;4993938;28;20191;-69
2022/01/25 10:37:57;;;;;;;20.80;12.68;;;2.20;99.90;;;;;;4993457;28;20738;-69
2022/01/25 10:40:37;;;;;;;18.40;11.18;;;2.20;99.90;;;;;;4996170;28;20709;-69
2022/01/25 10:43:06;;;;;;;14.85;10.05;;;2.10;99.90;;;;;;4997202;28;20202;-69
2022/01/25 10:45:33;;;;;;;17.67;10.32;;;2.10;99.90;;;;;;4997443;28;20210;-69
2022/01/25 10:48:02;;;;;;;17.65;11.32;;;2.10;99.90;;;;;;4997498;28;20252;-69
2022/01/25 10:50:34;;;;;;;17.80;11.20;;;2.00;99.90;;;;;;4997061;28;20229;-69
2022/01/25 10:53:07;;;;;;;16.75;10.32;;;2.00;99.90;;;;;;4997178;28;20193;-68
2022/01/25 10:55:38;;;;;;;17.23;10.68;;;2.00;99.90;;;;;;4996628;28;20251;-69
2022/01/25 10:58:07;;;;;;;15.07;9.35;;;2.00;99.90;;;;;;4997071;28;20597;-69
2022/01/25 11:00:36;;;;;;;11.65;8.45;;;2.00;99.90;;;;;;4996574;28;20639;-69
2022/01/25 11:03:05;;;;;;;15.75;10.25;;;2.10;99.90;;;;;;4996880;28;20265;-69
2022/01/25 11:05:33;;;;;;;14.27;9.60;;;2.10;99.90;;;;;;4996900;28;20245;-69
2022/01/25 11:08:11;;;;;;;13.20;8.70;;;2.10;99.90;;;;;;4996655;28;20630;-69
2022/01/25 11:10:42;;;;;;;15.90;9.68;;;2.10;99.90;;;;;;4996186;28;20226;-69
2022/01/25 11:13:22;;;;;;;16.13;10.23;;;2.00;99.90;;;;;;4996563;28;20195;-69
2022/01/25 11:15:49;;;;;;;13.57;9.68;;;2.00;99.90;;;;;;4996606;28;20187;-69
2022/01/25 11:18:17;;;;;;;15.48;10.02;;;1.90;99.90;;;;;;4996545;28;20229;-68
2022/01/25 11:20:45;;;;;;;14.70;9.35;;;1.90;99.90;;;;;;4996366;28;20318;-68
2022/01/25 11:23:13;;;;;;;15.80;10.25;;;2.00;99.90;;;;;;4996731;28;20198;-68
2022/01/25 11:25:41;;;;;;;14.43;9.80;;;2.00;99.90;;;;;;4996447;28;20575;-68
2022/01/25 11:28:08;;;;;;;12.13;8.23;;;2.00;99.90;;;;;;4996403;28;20223;-68
2022/01/25 11:30:38;;;;;;;12.75;8.90;;;2.10;99.90;;;;;;4996229;28;20223;-68
2022/01/25 11:33:06;;;;;;;11.77;8.00;;;2.10;99.90;;;;;;4995948;28;20657;-68
2022/01/25 11:35:35;;;;;;;9.80;7.28;;;2.10;99.90;;;;;;4996217;28;20210;-68
2022/01/25 11:38:02;;;;;;;13.38;7.53;;;2.10;99.90;;;;;;4996124;28;20195;-67
2022/01/25 11:40:31;;;;;;;10.90;6.93;;;2.10;99.90;;;;;;4995633;28;20238;-67
2022/01/25 11:43:00;;;;;;;9.18;6.88;;;2.00;99.90;;;;;;4996580;28;20211;-68
2022/01/25 11:45:29;;;;;;;9.45;6.75;;;2.00;99.90;;;;;;4996077;28;20289;-68
2022/01/25 11:47:56;;;;;;;8.23;5.80;;;2.10;99.90;;;;;;4995522;28;20225;-68
2022/01/25 11:50:34;;;;;;;8.60;5.80;;;2.10;99.90;;;;;;4995584;28;20264;-68
2022/01/25 11:53:07;;;;;;;8.93;6.60;;;2.10;99.90;;;;;;4996122;28;20206;-68
2022/01/25 11:55:36;;;;;;;11.65;8.60;;;2.00;99.90;;;;;;5019150;23;20230;-70
2022/01/25 11:58:07;;;;;;;9.20;7.40;;;2.00;99.90;;;;;;4995919;28;20249;-70
2022/01/25 12:00:40;;;;;;;11.77;8.02;;;2.00;99.90;;;;;;4995896;28;20187;-70
2022/01/25 12:03:23;;;;;;;11.40;8.15;;;2.00;99.90;;;;;;4995819;28;20191;-70
2022/01/25 12:06:05;;;;;;;12.55;8.07;;;2.00;99.90;;;;;;4994980;28;20261;-70
2022/01/25 12:08:41;;;;;;;9.38;7.05;;;1.90;99.90;;;;;;4995499;28;20210;-71
2022/01/25 12:11:34;;;;;;;12.95;8.10;;;1.90;99.90;;;;;;4995632;28;20198;-71
2022/01/25 12:14:20;;;;;;;10.75;7.38;;;1.90;99.90;;;;;;4995541;28;20564;-71
2022/01/25 12:16:50;;;;;;;12.35;8.57;;;1.90;99.90;;;;;;4995242;28;20183;-71
2022/01/25 12:19:19;;;;;;;9.07;6.95;;;1.90;99.90;;;;;;4995509;28;20205;-70
2022/01/25 12:21:58;;;;;;;9.13;6.85;;;1.90;99.90;;;;;;4995487;28;20274;-70
2022/01/25 12:24:31;;;;;;;9.50;6.95;;;1.90;99.90;;;;;;4995467;28;20313;-71
2022/01/25 12:27:03;;;;;;;8.45;6.30;;;1.90;99.90;;;;;;4995329;28;20187;-72
2022/01/25 12:29:32;;;;;;;7.05;5.68;;;1.90;99.90;;;;;;4995195;28;20211;-72
2022/01/25 12:32:17;;;;;;;6.00;5.00;;;2.00;99.90;;;;;;4994880;28;20206;-72
2022/01/25 12:35:08;;;;;;;5.50;4.82;;;2.00;99.90;;;;;;4995327;28;20249;-71
2022/01/25 12:37:59;;;;;;;6.78;5.10;;;2.00;99.90;;;;;;4995114;28;20187;-72
2022/01/25 12:40:33;;;;;;;6.40;5.28;;;2.00;99.90;;;;;;4995553;28;20218;-72
2022/01/25 12:43:02;;;;;;;6.40;5.47;;;2.00;99.90;;;;;;4995878;28;20245;-70
2022/01/25 12:45:33;;;;;;;7.18;5.72;;;2.00;99.90;;;;;;4994766;28;20702;-72
2022/01/25 12:48:02;;;;;;;6.65;5.70;;;2.00;99.90;;;;;;4994816;28;20288;-72
2022/01/25 12:50:30;;;;;;;7.70;5.80;;;2.00;99.90;;;;;;4994919;28;20274;-70
2022/01/25 12:53:00;;;;;;;6.32;5.13;;;2.10;99.90;;;;;;4994793;28;20213;-70
2022/01/25 12:55:33;;;;;;;5.85;4.80;;;2.10;99.90;;;;;;4994578;28;20238;-71
2022/01/25 12:58:00;;;;;;;6.40;5.00;;;2.10;99.90;;;;;;4994578;28;20273;-71
2022/01/25 13:00:32;;;;;;;5.63;4.57;;;2.10;99.90;;;;;;4996207;28;20194;-71
2022/01/25 13:03:16;;;;;;;6.03;4.72;;;2.10;99.90;;;;;;4997404;28;20237;-72
2022/01/25 13:05:45;;;;;;;5.63;4.75;;;2.10;99.90;;;;;;4997160;28;20226;-72
2022/01/25 13:08:34;;;;;;;5.60;4.85;;;2.10;99.90;;;;;;4998132;28;20223;-72
2022/01/25 13:11:41;;;;;;;5.00;4.43;;;2.10;99.90;;;;;;4996536;28;20222;-73
2022/01/25 13:14:32;;;;;;;7.40;4.90;;;2.10;99.90;;;;;;4996471;28;20199;-73
2022/01/25 13:17:01;;;;;;;5.30;4.50;;;2.20;99.90;;;;;;4996380;28;20226;-70
2022/01/25 13:19:32;;;;;;;3.97;3.67;;;2.20;99.90;;;;;;4997295;28;20230;-70
2022/01/25 13:22:06;;;;;;;3.80;3.50;;;2.20;99.90;;;;;;4997781;28;20183;-70
2022/01/25 13:24:37;;;;;;;3.75;3.40;;;2.20;99.90;;;;;;4997353;28;20226;-70
2022/01/25 13:27:09;;;;;;;4.20;3.80;;;2.30;99.90;;;;;;4995964;28;20660;-70
2022/01/25 13:32:32;;;;;;;4.90;4.15;;;2.30;99.90;;;;;;4996391;28;20621;-73
2022/01/25 13:35:23;;;;;;;4.05;3.65;;;2.40;99.90;;;;;;4996544;28;20230;-73
2022/01/25 13:38:12;;;;;;;3.85;3.55;;;2.40;99.90;;;;;;4996755;28;20211;-73
2022/01/25 13:40:50;;;;;;;4.00;3.58;;;2.40;99.90;;;;;;4997028;28;20644;-73
2022/01/25 13:45:43;;;;;;;3.80;3.50;;;2.40;99.90;;;;;;4997762;28;20190;-73
2022/01/25 13:46:22;;;;;;;4.30;3.90;;;2.40;99.90;;;;;;4996615;28;20633;-74
2022/01/25 13:48:50;;;;;;;4.03;3.53;;;2.40;99.90;;;;;;4997232;28;20211;-74
2022/01/25 13:51:19;;;;;;;4.13;3.70;;;2.40;99.90;;;;;;4994121;28;20281;-74
2022/01/25 13:53:52;;;;;;;3.92;3.63;;;2.40;99.90;;;;;;4994116;28;20199;-74
2022/01/25 13:56:19;;;;;;;3.40;3.17;;;2.40;99.90;;;;;;4994175;28;20191;-72
2022/01/25 13:58:49;;;;;;;3.40;3.13;;;2.40;99.90;;;;;;4993820;28;20230;-73
2022/01/25 14:01:18;;;;;;;3.10;2.90;;;2.40;99.90;;;;;;4994050;28;20210;-73
2022/01/25 14:03:53;;;;;;;3.72;3.42;;;2.40;99.90;;;;;;4994243;28;20593;-73
2022/01/25 14:06:23;;;;;;;3.13;2.85;;;2.40;99.90;;;;;;4994149;28;20275;-72
2022/01/25 14:08:51;;;;;;;3.80;3.53;;;2.30;99.90;;;;;;4993618;28;20654;-72
2022/01/25 14:11:26;;;;;;;3.30;3.00;;;2.30;99.90;;;;;;4993883;28;20210;-72
2022/01/25 14:24:53;;;;;;;3.63;3.33;;;2.20;99.90;;;;;;4977034;28;20222;-72
2022/01/25 14:27:23;;;;;;;3.78;3.22;;;2.20;99.90;;;;;;4997599;28;20203;-72
2022/01/25 14:29:53;;;;;;;3.50;3.20;;;2.10;99.90;;;;;;4997172;28;20229;-72
2022/01/25 14:32:32;;;;;;;4.13;3.47;;;2.10;99.90;;;;;;4997526;28;20207;-72
2022/01/25 14:35:04;;;;;;;3.33;3.00;;;2.10;99.90;;;;;;4997395;28;20314;-72
2022/01/25 14:37:31;;;;;;;3.30;3.00;;;2.00;99.90;;;;;;4997325;28;20206;-72
2022/01/25 14:40:07;;;;;;;3.60;3.30;;;2.00;99.90;;;;;;4997311;28;20198;-72
2022/01/25 14:42:34;;;;;;;3.40;3.10;;;1.90;99.90;;;;;;4997233;28;20244;-73
2022/01/25 14:45:04;;;;;;;3.65;3.35;;;1.90;99.90;;;;;;4997146;28;20226;-73
2022/01/25 14:47:36;;;;;;;4.22;3.45;;;1.80;99.90;;;;;;4997126;28;20289;-72
2022/01/25 14:50:07;;;;;;;3.45;3.25;;;1.80;99.90;;;;;;4997244;28;20207;-73
2022/01/25 14:52:34;;;;;;;4.10;3.70;;;1.80;99.90;;;;;;4997187;28;20187;-72
2022/01/25 14:55:01;;;;;;;2.78;2.67;;;1.70;99.90;;;;;;4996655;28;20235;-72
2022/01/25 14:57:40;;;;;;;3.38;3.15;;;1.70;99.90;;;;;;4996948;28;20293;-72
2022/01/25 15:00:09;;;;;;;3.35;3.05;;;1.60;99.90;;;;;;4996963;28;20584;-72
2022/01/25 15:02:36;;;;;;;3.70;3.35;;;1.60;99.90;;;;;;4996543;28;20636;-72
2022/01/25 15:05:03;;;;;;;3.30;3.08;;;1.50;99.90;;;;;;4996944;28;20290;-72
2022/01/25 15:07:33;;;;;;;3.10;2.80;;;1.50;99.90;;;;;;4996836;28;20202;-72
2022/01/25 15:10:03;;;;;;;3.55;3.25;;;1.50;99.90;;;;;;4996599;28;20581;-72
2022/01/25 15:12:36;;;;;;;3.17;2.97;;;1.40;99.90;;;;;;4996777;28;20213;-73
2022/01/25 15:15:09;;;;;;;3.28;3.08;;;1.40;99.90;;;;;;4996743;28;20227;-73
2022/01/25 15:17:37;;;;;;;3.60;3.30;;;1.40;99.90;;;;;;4996712;28;20543;-73
2022/01/25 15:20:06;;;;;;;3.42;3.13;;;1.30;99.90;;;;;;4996645;28;20213;-71
2022/01/25 15:22:33;;;;;;;3.22;2.97;;;1.30;99.90;;;;;;4996635;28;20206;-71
2022/01/25 15:25:01;;;;;;;3.58;3.28;;;1.20;99.90;;;;;;4996151;28;20226;-71
2022/01/25 15:27:30;;;;;;;4.15;3.55;;;1.20;99.90;;;;;;4997825;28;20614;-71
2022/01/25 15:29:58;;;;;;;3.08;2.80;;;1.20;99.90;;;;;;4997385;28;20228;-71
2022/01/25 15:32:26;;;;;;;2.90;2.60;;;1.10;99.90;;;;;;4996430;28;20211;-72
2022/01/25 15:34:54;;;;;;;3.10;2.90;;;1.10;99.90;;;;;;4998877;28;20242;-71
2022/01/25 15:37:21;;;;;;;3.28;3.03;;;1.10;99.90;;;;;;4999734;28;20257;-71
2022/01/25 15:39:48;;;;;;;2.83;2.63;;;1.00;99.90;;;;;;4998259;28;20729;-71
2022/01/25 15:42:18;;;;;;;3.30;3.00;;;1.00;99.90;;;;;;4997738;28;20270;-71
2022/01/25 15:44:46;;;;;;;2.92;2.72;;;1.00;99.90;;;;;;4996073;28;20560;-71
2022/01/25 15:47:14;;;;;;;3.33;3.03;;;0.90;99.90;;;;;;4996046;28;20230;-71
2022/01/25 15:49:43;;;;;;;3.55;3.25;;;0.90;99.90;;;;;;4995582;28;20210;-71
2022/01/25 15:52:12;;;;;;;2.80;2.65;;;0.80;99.90;;;;;;4996011;28;20211;-71
2022/01/25 15:54:41;;;;;;;3.30;3.10;;;0.80;99.90;;;;;;4995426;28;20746;-71
2022/01/25 15:57:10;;;;;;;3.00;2.63;;;0.80;99.90;;;;;;4995541;28;20230;-70
2022/01/25 15:59:38;;;;;;;3.13;2.92;;;0.70;99.90;;;;;;4995354;28;20588;-71
2022/01/25 16:02:11;;;;;;;2.97;2.78;;;0.70;99.90;;;;;;4995359;28;20615;-73
2022/01/25 16:04:41;;;;;;;3.15;2.95;;;0.70;99.90;;;;;;4995522;28;20317;-70
2022/01/25 16:07:10;;;;;;;3.00;2.80;;;0.60;99.90;;;;;;4996283;28;20249;-70
2022/01/25 16:09:39;;;;;;;3.08;2.88;;;0.60;99.90;;;;;;4995440;28;20211;-70
2022/01/25 16:12:07;;;;;;;2.97;2.78;;;0.50;99.90;;;;;;4995441;28;20210;-71
2022/01/25 16:14:35;;;;;;;3.38;3.10;;;0.50;99.90;;;;;;4995341;28;20309;-70
2022/01/25 16:17:02;;;;;;;3.03;2.83;;;0.50;99.90;;;;;;4995097;28;20206;-70
2022/01/25 16:19:29;;;;;;;3.22;3.03;;;0.40;99.90;;;;;;4995296;28;20289;-70
2022/01/25 16:21:56;;;;;;;3.00;2.80;;;0.40;99.90;;;;;;4996057;28;20214;-70
2022/01/25 16:24:23;;;;;;;2.85;2.72;;;0.30;99.90;;;;;;4995108;28;20309;-70
2022/01/25 16:26:51;;;;;;;3.42;3.13;;;0.30;99.90;;;;;;4995165;28;20290;-70
2022/01/25 16:29:18;;;;;;;3.53;3.22;;;0.30;99.90;;;;;;4995069;28;20223;-70
2022/01/25 16:31:45;;;;;;;3.70;3.40;;;0.20;99.90;;;;;;4995035;28;20203;-70
2022/01/25 16:34:13;;;;;;;3.55;3.35;;;0.20;99.90;;;;;;4995060;28;20313;-70
2022/01/25 16:36:40;;;;;;;3.53;3.22;;;0.20;99.90;;;;;;4994123;28;20214;-70
2022/01/25 16:39:09;;;;;;;3.25;2.95;;;0.10;99.90;;;;;;4995032;28;20234;-70
2022/01/25 16:41:36;;;;;;;3.70;3.40;;;0.10;99.90;;;;;;4995217;28;20207;-70
2022/01/25 16:44:05;;;;;;;3.08;2.88;;;0.10;99.90;;;;;;4994541;28;20245;-71
2022/01/25 16:46:33;;;;;;;3.85;3.55;;;0.00;99.90;;;;;;4994532;28;20737;-71
2022/01/25 16:49:00;;;;;;;3.92;3.03;;;0.00;99.90;;;;;;4994460;28;20877;-71
2022/01/25 16:51:27;;;;;;;3.00;2.80;;;0.00;99.90;;;;;;4994688;28;20238;-72
2022/01/25 16:53:54;;;;;;;3.30;3.00;;;-0.10;99.90;;;;;;4994489;28;20203;-71
2022/01/25 16:56:21;;;;;;;3.28;2.97;;;-0.10;99.90;;;;;;4994629;28;20554;-70
2022/01/25 16:58:56;;;;;;;3.30;3.10;;;-0.10;99.90;;;;;;4994237;28;20211;-73
2022/01/25 17:01:25;;;;;;;3.70;3.40;;;-0.20;99.90;;;;;;4994068;28;20551;-73
2022/01/25 17:03:52;;;;;;;3.55;3.25;;;-0.20;99.90;;;;;;4993999;28;20210;-71
2022/01/25 17:06:19;;;;;;;3.85;3.47;;;-0.20;99.90;;;;;;4994114;28;20209;-71
2022/01/25 17:08:46;;;;;;;3.42;3.13;;;-0.30;99.90;;;;;;4993656;28;20205;-69
2022/01/25 17:11:14;;;;;;;3.78;3.45;;;-0.30;99.90;;;;;;4994103;28;20213;-69
2022/01/25 17:13:41;;;;;;;3.80;3.50;;;-0.40;99.90;;;;;;4994116;28;20250;-70
2022/01/25 17:16:09;;;;;;;3.90;3.60;;;-0.40;99.90;;;;;;4994087;28;20232;-72
2022/01/25 17:18:38;;;;;;;4.60;3.85;;;-0.40;99.90;;;;;;4993968;28;20253;-73
2022/01/25 17:21:04;;;;;;;4.53;3.90;;;-0.50;99.90;;;;;;4994119;28;20241;-73
2022/01/25 17:23:31;;;;;;;5.07;3.72;;;-0.50;99.90;;;;;;4993688;28;20643;-73
2022/01/25 17:25:59;;;;;;;3.95;3.65;;;-0.50;99.90;;;;;;4993945;28;20281;-72
2022/01/25 17:28:26;;;;;;;3.63;3.33;;;-0.50;99.90;;;;;;4994133;28;20203;-72
2022/01/25 17:30:57;;;;;;;3.47;3.17;;;-0.60;99.90;;;;;;4994117;28;20223;-74
2022/01/25 17:33:24;;;;;;;3.70;3.40;;;-0.60;99.90;;;;;;4994981;28;20352;-75
2022/01/25 17:35:53;;;;;;;4.60;4.13;;;-0.60;99.90;;;;;;4995216;28;20273;-73
2022/01/25 17:38:20;;;;;;;4.18;3.72;;;-0.60;99.90;;;;;;4994212;28;20205;-73
2022/01/25 17:40:47;;;;;;;4.97;3.92;;;-0.70;99.90;;;;;;4993764;28;20217;-72
2022/01/25 17:43:14;;;;;;;5.15;3.90;;;-0.70;99.90;;;;;;4994031;28;20669;-73
2022/01/25 17:45:47;;;;;;;3.65;3.35;;;-0.70;99.90;;;;;;4994444;28;20223;-73
2022/01/25 17:48:14;;;;;;;3.90;3.60;;;-0.80;99.90;;;;;;4995228;28;20653;-73
2022/01/25 17:50:41;;;;;;;5.30;3.97;;;-0.80;99.90;;;;;;4997212;28;20593;-73
2022/01/25 17:53:11;;;;;;;4.00;3.70;;;-0.80;99.90;;;;;;4998180;28;20213;-73
2022/01/25 17:55:38;;;;;;;4.38;3.75;;;-0.80;99.90;;;;;;4996881;28;20231;-72
2022/01/25 17:58:05;;;;;;;4.13;3.63;;;-0.90;99.90;;;;;;4997250;28;20203;-73
2022/01/25 18:00:32;;;;;;;4.07;3.70;;;-0.90;99.90;;;;;;4997030;28;20685;-73
2022/01/25 18:02:59;;;;;;;3.35;3.08;;;-0.90;99.90;;;;;;4997712;28;20202;-73
2022/01/25 18:05:26;;;;;;;4.43;4.03;;;-0.90;99.90;;;;;;4997721;28;20314;-73
2022/01/25 18:07:53;;;;;;;4.13;3.75;;;-0.90;99.90;;;;;;4997548;28;20199;-72
2022/01/25 18:10:21;;;;;;;4.10;3.70;;;-0.90;99.90;;;;;;4997687;28;20223;-73
2022/01/25 18:12:48;;;;;;;3.97;3.67;;;-1.00;99.90;;;;;;4997718;28;20569;-74
2022/01/25 18:15:16;;;;;;;6.10;4.40;;;-1.00;99.90;;;;;;4997647;28;20261;-76
2022/01/25 18:17:43;;;;;;;3.88;3.50;;;-1.00;99.90;;;;;;4997410;28;20209;-73
2022/01/25 18:20:14;;;;;;;3.50;3.20;;;-1.00;99.90;;;;;;4997620;28;20229;-73
2022/01/25 18:22:49;;;;;;;3.17;2.97;;;-1.00;99.90;;;;;;4997525;28;20197;-73
2022/01/25 18:25:38;;;;;;;3.90;3.50;;;-1.10;99.90;;;;;;4997173;28;20222;-73
2022/01/25 18:28:09;;;;;;;3.67;3.40;;;-1.10;99.90;;;;;;4997379;28;20183;-75